Flight Track Log - Related Links

Times and Time Zones

All times are in EDT time to prevent confusion due to time zone crossing. See the SIL4069 flight status page for this flight to view local times or setup timezone preferences in your user account.

Time Position Orientation Groundspeed Altitude Reporting Facility
EDT Latitude Longitude Course Direction KTS MPH feet Rate Location/Type
Mon 06:48:05 PM 41.4153 -81.8375 38° Northeast 152 175 1,700  Level Cleveland Center
Mon 06:48:23 PM 41.4258 -81.8267 38° Northeast 158 182 2,100 1,524 Climbing Cleveland Center
Mon 06:51:14 PM 41.5497 -81.7261 31° Northeast 188 216 6,500 1,547 Climbing Cleveland Center
Mon 06:54:12 PM 41.6847 -81.5842 36° Northeast 208 239 11,100 1,406 Climbing Cleveland Center
Mon 06:55:13 PM 41.6853 -81.5200 89° East 173 199 12,100 1,190 Climbing Cleveland Center
Mon 06:56:13 PM 41.6669 -81.4447 108° East 182 209 13,500 1,341 Climbing Cleveland Center
Mon 06:58:12 PM 41.6306 -81.2831 107° East 225 259 16,100 1,167 Climbing Cleveland Center
Mon 06:59:13 PM 41.6164 -81.2025 103° East 225 259 17,000 446 Climbing Cleveland Center
Mon 07:00:13 PM 41.6003 -81.1025 102° East 230 265 17,000  Level Cleveland Center
Mon 07:01:14 PM 41.5819 -81.0050 104° East 254 292 17,000  Level Cleveland Center
Mon 07:02:14 PM 41.5633 -80.9050 104° East 266 306 17,000  Level Cleveland Center
Mon 07:03:12 PM 41.5469 -80.8050 102° East 271 312 17,000 -50 Level Cleveland Center
Mon 07:04:13 PM 41.5283 -80.7053 104° East 276 318 16,900  Descending Cleveland Center
Mon 07:05:15 PM 41.5097 -80.6025 104° East 276 318 17,000 33 Climbing Cleveland Center
Mon 07:07:13 PM 41.4742 -80.4003 103° East 276 318 17,000  Level Cleveland Center
Mon 07:08:13 PM 41.4553 -80.3006 104° East 276 318 17,000  Level Cleveland Center
Mon 07:10:14 PM 41.4150 -80.0986 105° East 276 318 17,000 -231 Level Cleveland Center
Mon 07:11:15 PM 41.3936 -79.9992 106° East 276 318 16,300 -915 Descending Cleveland Center
Mon 07:12:12 PM 41.3722 -79.9025 106° East 276 318 15,200 -1,169 Descending Cleveland Center
Mon 07:13:13 PM 41.3550 -79.8114 104° East 265 305 14,000 -527 Descending Cleveland Center
Mon 07:15:14 PM 41.3139 -79.6294 107° East 259 298 13,600 -593 Descending Cleveland Center
Mon 07:16:15 PM 41.2944 -79.5331 105° East 259 298 12,200 -1,311 Descending Cleveland Center
Mon 07:17:13 PM 41.2769 -79.4419 104° East 259 298 11,000 -1,128 Descending Cleveland Center
Mon 07:18:12 PM 41.2572 -79.3511 106° East 259 298 10,000 -1,400 Descending Cleveland Center
Mon 07:19:13 PM 41.2353 -79.2578 107° East 259 298 8,200 -1,587 Descending Cleveland Center
Mon 07:20:13 PM 41.2217 -79.1697 102° East 259 298 6,800 -1,388 Descending Cleveland Center
Mon 07:21:14 PM 41.1956 -79.0903 114° Southeast 241 277 5,400 -1,438 Descending Cleveland Center
Mon 07:22:14 PM 41.1675 -79.0192 118° Southeast 228 262 3,900 -1,500 Descending Cleveland Center
Mon 07:24:00 PM 41.1783 -78.8987 102° East  Level Estimated

Login

Don't have an account? Register now (free) for customized features, flight alerts, and more!